sensor_id;sensor_type;location;lat;lon;timestamp;P1;durP1;ratioP1;P2;durP2;ratioP2
50968;SDS011;36982;51.474;7.228;2023-06-10T00:00:16;7.03;;;5.80;;
50968;SDS011;36982;51.474;7.228;2023-06-10T00:02:42;6.37;;;5.78;;
50968;SDS011;36982;51.474;7.228;2023-06-10T00:05:08;7.78;;;6.00;;
50968;SDS011;36982;51.474;7.228;2023-06-10T00:07:34;6.65;;;6.05;;
50968;SDS011;36982;51.474;7.228;2023-06-10T00:10:06;6.45;;;5.75;;
50968;SDS011;36982;51.474;7.228;2023-06-10T00:12:32;6.85;;;6.05;;
50968;SDS011;36982;51.474;7.228;2023-06-10T00:15:02;7.97;;;6.10;;
50968;SDS011;36982;51.474;7.228;2023-06-10T00:17:29;7.85;;;6.07;;
50968;SDS011;36982;51.474;7.228;2023-06-10T00:19:55;7.60;;;6.80;;
50968;SDS011;36982;51.474;7.228;2023-06-10T00:22:21;8.60;;;6.78;;
50968;SDS011;36982;51.474;7.228;2023-06-10T00:24:47;7.87;;;7.05;;
50968;SDS011;36982;51.474;7.228;2023-06-10T00:27:13;7.75;;;6.53;;
50968;SDS011;36982;51.474;7.228;2023-06-10T00:29:38;8.38;;;6.47;;
50968;SDS011;36982;51.474;7.228;2023-06-10T00:32:04;7.85;;;6.12;;
50968;SDS011;36982;51.474;7.228;2023-06-10T00:34:30;7.43;;;6.60;;
50968;SDS011;36982;51.474;7.228;2023-06-10T00:36:57;7.35;;;6.65;;
50968;SDS011;36982;51.474;7.228;2023-06-10T00:39:22;8.68;;;7.20;;
50968;SDS011;36982;51.474;7.228;2023-06-10T00:41:48;8.00;;;6.75;;
50968;SDS011;36982;51.474;7.228;2023-06-10T00:44:14;7.50;;;6.80;;
50968;SDS011;36982;51.474;7.228;2023-06-10T00:46:40;13.82;;;6.40;;
50968;SDS011;36982;51.474;7.228;2023-06-10T00:49:06;7.68;;;6.90;;
50968;SDS011;36982;51.474;7.228;2023-06-10T00:51:31;7.47;;;6.72;;
50968;SDS011;36982;51.474;7.228;2023-06-10T00:53:57;7.80;;;6.90;;
50968;SDS011;36982;51.474;7.228;2023-06-10T00:56:23;8.00;;;7.20;;
50968;SDS011;36982;51.474;7.228;2023-06-10T00:58:48;9.60;;;6.72;;
50968;SDS011;36982;51.474;7.228;2023-06-10T01:01:15;7.05;;;6.35;;
50968;SDS011;36982;51.474;7.228;2023-06-10T01:03:41;7.68;;;6.72;;
50968;SDS011;36982;51.474;7.228;2023-06-10T01:09:13;7.43;;;6.15;;
50968;SDS011;36982;51.474;7.228;2023-06-10T01:12:07;9.63;;;6.93;;
50968;SDS011;36982;51.474;7.228;2023-06-10T01:14:50;11.27;;;7.28;;
50968;SDS011;36982;51.474;7.228;2023-06-10T01:17:16;8.93;;;7.28;;
50968;SDS011;36982;51.474;7.228;2023-06-10T01:19:43;9.07;;;7.45;;
50968;SDS011;36982;51.474;7.228;2023-06-10T01:22:09;8.00;;;7.20;;
50968;SDS011;36982;51.474;7.228;2023-06-10T01:24:36;9.15;;;7.43;;
50968;SDS011;36982;51.474;7.228;2023-06-10T01:27:03;7.70;;;6.90;;
50968;SDS011;36982;51.474;7.228;2023-06-10T01:29:44;10.52;;;7.10;;
50968;SDS011;36982;51.474;7.228;2023-06-10T01:35:15;9.40;;;7.45;;
50968;SDS011;36982;51.474;7.228;2023-06-10T01:37:42;10.80;;;7.45;;
50968;SDS011;36982;51.474;7.228;2023-06-10T01:40:10;7.72;;;6.95;;
50968;SDS011;36982;51.474;7.228;2023-06-10T01:42:37;11.38;;;7.60;;
50968;SDS011;36982;51.474;7.228;2023-06-10T01:45:03;11.88;;;7.43;;
50968;SDS011;36982;51.474;7.228;2023-06-10T01:47:29;10.70;;;7.12;;
50968;SDS011;36982;51.474;7.228;2023-06-10T01:49:54;8.80;;;7.90;;
50968;SDS011;36982;51.474;7.228;2023-06-10T01:52:20;9.02;;;7.62;;
50968;SDS011;36982;51.474;7.228;2023-06-10T01:54:46;8.63;;;7.60;;
50968;SDS011;36982;51.474;7.228;2023-06-10T01:57:11;9.40;;;7.18;;
50968;SDS011;36982;51.474;7.228;2023-06-10T01:59:37;8.27;;;7.47;;
50968;SDS011;36982;51.474;7.228;2023-06-10T02:02:03;8.63;;;7.68;;
50968;SDS011;36982;51.474;7.228;2023-06-10T02:04:30;9.77;;;7.82;;
50968;SDS011;36982;51.474;7.228;2023-06-10T02:06:56;9.23;;;7.70;;
50968;SDS011;36982;51.474;7.228;2023-06-10T02:09:21;10.75;;;8.50;;
50968;SDS011;36982;51.474;7.228;2023-06-10T02:11:47;11.80;;;7.82;;
50968;SDS011;36982;51.474;7.228;2023-06-10T02:14:13;8.48;;;7.68;;
50968;SDS011;36982;51.474;7.228;2023-06-10T02:16:39;9.82;;;8.50;;
50968;SDS011;36982;51.474;7.228;2023-06-10T02:19:05;9.43;;;8.52;;
50968;SDS011;36982;51.474;7.228;2023-06-10T02:21:31;10.77;;;8.70;;
50968;SDS011;36982;51.474;7.228;2023-06-10T02:23:59;12.40;;;8.93;;
50968;SDS011;36982;51.474;7.228;2023-06-10T02:26:25;12.48;;;8.50;;
50968;SDS011;36982;51.474;7.228;2023-06-10T02:28:51;9.73;;;8.68;;
50968;SDS011;36982;51.474;7.228;2023-06-10T02:31:16;12.55;;;8.93;;
50968;SDS011;36982;51.474;7.228;2023-06-10T02:33:42;9.32;;;8.45;;
50968;SDS011;36982;51.474;7.228;2023-06-10T02:36:09;12.27;;;9.10;;
50968;SDS011;36982;51.474;7.228;2023-06-10T02:38:38;9.85;;;8.57;;
50968;SDS011;36982;51.474;7.228;2023-06-10T02:41:05;10.88;;;9.40;;
50968;SDS011;36982;51.474;7.228;2023-06-10T02:43:31;9.90;;;8.80;;
50968;SDS011;36982;51.474;7.228;2023-06-10T02:45:56;12.82;;;9.73;;
50968;SDS011;36982;51.474;7.228;2023-06-10T02:48:23;10.90;;;9.27;;
50968;SDS011;36982;51.474;7.228;2023-06-10T02:50:49;10.65;;;9.55;;
50968;SDS011;36982;51.474;7.228;2023-06-10T02:53:15;12.82;;;10.52;;
50968;SDS011;36982;51.474;7.228;2023-06-10T02:55:40;11.50;;;9.48;;
50968;SDS011;36982;51.474;7.228;2023-06-10T02:58:06;11.80;;;9.63;;
50968;SDS011;36982;51.474;7.228;2023-06-10T03:00:32;12.37;;;10.15;;
50968;SDS011;36982;51.474;7.228;2023-06-10T03:02:58;12.68;;;11.35;;
50968;SDS011;36982;51.474;7.228;2023-06-10T03:05:27;12.10;;;10.82;;
50968;SDS011;36982;51.474;7.228;2023-06-10T03:07:53;11.60;;;10.40;;
50968;SDS011;36982;51.474;7.228;2023-06-10T03:10:19;11.43;;;10.23;;
50968;SDS011;36982;51.474;7.228;2023-06-10T03:12:44;10.75;;;9.65;;
50968;SDS011;36982;51.474;7.228;2023-06-10T03:15:10;11.98;;;10.77;;
50968;SDS011;36982;51.474;7.228;2023-06-10T03:17:36;12.68;;;11.38;;
50968;SDS011;36982;51.474;7.228;2023-06-10T03:20:02;14.48;;;10.50;;
50968;SDS011;36982;51.474;7.228;2023-06-10T03:22:30;11.85;;;10.75;;
50968;SDS011;36982;51.474;7.228;2023-06-10T03:24:56;14.27;;;11.25;;
50968;SDS011;36982;51.474;7.228;2023-06-10T03:27:22;11.93;;;10.68;;
50968;SDS011;36982;51.474;7.228;2023-06-10T03:29:47;12.18;;;10.98;;
50968;SDS011;36982;51.474;7.228;2023-06-10T03:32:13;12.07;;;10.50;;
50968;SDS011;36982;51.474;7.228;2023-06-10T03:34:39;12.60;;;11.27;;
50968;SDS011;36982;51.474;7.228;2023-06-10T03:37:05;12.82;;;11.45;;
50968;SDS011;36982;51.474;7.228;2023-06-10T03:39:31;13.05;;;11.65;;
50968;SDS011;36982;51.474;7.228;2023-06-10T03:41:57;14.70;;;11.02;;
50968;SDS011;36982;51.474;7.228;2023-06-10T03:44:24;14.87;;;12.23;;
50968;SDS011;36982;51.474;7.228;2023-06-10T03:46:51;14.87;;;12.27;;
50968;SDS011;36982;51.474;7.228;2023-06-10T03:49:16;13.18;;;11.55;;
50968;SDS011;36982;51.474;7.228;2023-06-10T03:51:42;14.77;;;11.60;;
50968;SDS011;36982;51.474;7.228;2023-06-10T03:54:08;13.30;;;11.55;;
50968;SDS011;36982;51.474;7.228;2023-06-10T03:56:34;14.80;;;11.60;;
50968;SDS011;36982;51.474;7.228;2023-06-10T03:59:00;13.40;;;12.00;;
50968;SDS011;36982;51.474;7.228;2023-06-10T04:01:26;14.68;;;10.82;;
50968;SDS011;36982;51.474;7.228;2023-06-10T04:03:51;11.95;;;10.70;;
50968;SDS011;36982;51.474;7.228;2023-06-10T04:06:19;13.15;;;11.68;;
50968;SDS011;36982;51.474;7.228;2023-06-10T04:08:45;12.27;;;11.00;;
50968;SDS011;36982;51.474;7.228;2023-06-10T04:11:10;17.62;;;11.52;;
50968;SDS011;36982;51.474;7.228;2023-06-10T04:13:36;13.45;;;11.40;;
50968;SDS011;36982;51.474;7.228;2023-06-10T04:16:02;13.73;;;11.43;;
50968;SDS011;36982;51.474;7.228;2023-06-10T04:18:28;12.35;;;10.68;;
50968;SDS011;36982;51.474;7.228;2023-06-10T04:20:54;12.95;;;9.77;;
50968;SDS011;36982;51.474;7.228;2023-06-10T04:23:20;12.55;;;10.57;;
50968;SDS011;36982;51.474;7.228;2023-06-10T04:25:46;12.13;;;10.00;;
50968;SDS011;36982;51.474;7.228;2023-06-10T04:28:11;11.50;;;10.27;;
50968;SDS011;36982;51.474;7.228;2023-06-10T04:30:37;12.45;;;9.82;;
50968;SDS011;36982;51.474;7.228;2023-06-10T04:33:03;11.23;;;10.13;;
50968;SDS011;36982;51.474;7.228;2023-06-10T04:35:31;11.12;;;9.90;;
50968;SDS011;36982;51.474;7.228;2023-06-10T04:37:57;13.57;;;9.93;;
50968;SDS011;36982;51.474;7.228;2023-06-10T04:40:23;10.65;;;8.65;;
50968;SDS011;36982;51.474;7.228;2023-06-10T04:42:48;10.65;;;9.32;;
50968;SDS011;36982;51.474;7.228;2023-06-10T04:45:14;9.82;;;8.82;;
50968;SDS011;36982;51.474;7.228;2023-06-10T04:47:40;10.02;;;8.93;;
50968;SDS011;36982;51.474;7.228;2023-06-10T04:50:05;13.20;;;9.23;;
50968;SDS011;36982;51.474;7.228;2023-06-10T04:52:31;13.90;;;8.70;;
50968;SDS011;36982;51.474;7.228;2023-06-10T04:54:58;9.68;;;8.45;;
50968;SDS011;36982;51.474;7.228;2023-06-10T04:57:24;11.50;;;8.75;;
50968;SDS011;36982;51.474;7.228;2023-06-10T04:59:51;9.90;;;8.38;;
50968;SDS011;36982;51.474;7.228;2023-06-10T05:02:17;10.45;;;8.55;;
50968;SDS011;36982;51.474;7.228;2023-06-10T05:04:42;8.85;;;7.87;;
50968;SDS011;36982;51.474;7.228;2023-06-10T05:07:08;11.45;;;8.40;;
50968;SDS011;36982;51.474;7.228;2023-06-10T05:09:34;9.80;;;7.85;;
50968;SDS011;36982;51.474;7.228;2023-06-10T05:11:59;9.45;;;7.55;;
50968;SDS011;36982;51.474;7.228;2023-06-10T05:14:25;8.63;;;7.72;;
50968;SDS011;36982;51.474;7.228;2023-06-10T05:16:50;7.65;;;6.85;;
50968;SDS011;36982;51.474;7.228;2023-06-10T05:19:16;9.23;;;6.65;;
50968;SDS011;36982;51.474;7.228;2023-06-10T05:21:42;9.05;;;7.30;;
50968;SDS011;36982;51.474;7.228;2023-06-10T05:24:08;8.27;;;6.62;;
50968;SDS011;36982;51.474;7.228;2023-06-10T05:26:34;9.20;;;7.68;;
50968;SDS011;36982;51.474;7.228;2023-06-10T05:29:03;8.40;;;6.55;;
50968;SDS011;36982;51.474;7.228;2023-06-10T05:31:29;8.90;;;6.93;;
50968;SDS011;36982;51.474;7.228;2023-06-10T05:33:55;11.30;;;6.80;;
50968;SDS011;36982;51.474;7.228;2023-06-10T05:36:20;8.18;;;6.30;;
50968;SDS011;36982;51.474;7.228;2023-06-10T05:38:46;8.93;;;6.40;;
50968;SDS011;36982;51.474;7.228;2023-06-10T05:41:11;10.05;;;6.75;;
50968;SDS011;36982;51.474;7.228;2023-06-10T05:43:37;12.15;;;6.55;;
50968;SDS011;36982;51.474;7.228;2023-06-10T05:46:03;7.60;;;5.87;;
50968;SDS011;36982;51.474;7.228;2023-06-10T05:48:28;7.18;;;6.18;;
50968;SDS011;36982;51.474;7.228;2023-06-10T05:50:54;6.62;;;6.00;;
50968;SDS011;36982;51.474;7.228;2023-06-10T05:53:19;7.65;;;6.53;;
50968;SDS011;36982;51.474;7.228;2023-06-10T05:55:45;8.27;;;5.87;;
50968;SDS011;36982;51.474;7.228;2023-06-10T05:58:11;7.78;;;6.05;;
50968;SDS011;36982;51.474;7.228;2023-06-10T06:00:39;7.22;;;6.05;;
50968;SDS011;36982;51.474;7.228;2023-06-10T06:03:08;6.62;;;5.70;;
50968;SDS011;36982;51.474;7.228;2023-06-10T06:05:34;9.57;;;6.15;;
50968;SDS011;36982;51.474;7.228;2023-06-10T06:08:02;7.22;;;5.60;;
50968;SDS011;36982;51.474;7.228;2023-06-10T06:10:30;10.60;;;5.70;;
50968;SDS011;36982;51.474;7.228;2023-06-10T06:12:58;7.35;;;6.00;;
50968;SDS011;36982;51.474;7.228;2023-06-10T06:15:25;6.55;;;5.57;;
50968;SDS011;36982;51.474;7.228;2023-06-10T06:17:50;7.40;;;5.70;;
50968;SDS011;36982;51.474;7.228;2023-06-10T06:20:19;8.45;;;5.62;;
50968;SDS011;36982;51.474;7.228;2023-06-10T06:22:45;6.25;;;5.60;;
50968;SDS011;36982;51.474;7.228;2023-06-10T06:25:10;8.18;;;5.32;;
50968;SDS011;36982;51.474;7.228;2023-06-10T06:27:36;7.12;;;5.32;;
50968;SDS011;36982;51.474;7.228;2023-06-10T06:30:05;7.57;;;5.90;;
50968;SDS011;36982;51.474;7.228;2023-06-10T06:32:31;6.72;;;5.32;;
50968;SDS011;36982;51.474;7.228;2023-06-10T06:34:57;8.38;;;5.95;;
50968;SDS011;36982;51.474;7.228;2023-06-10T06:37:23;6.72;;;5.70;;
50968;SDS011;36982;51.474;7.228;2023-06-10T06:39:53;5.68;;;5.10;;
50968;SDS011;36982;51.474;7.228;2023-06-10T06:42:19;5.65;;;5.03;;
50968;SDS011;36982;51.474;7.228;2023-06-10T06:44:46;6.20;;;5.57;;
50968;SDS011;36982;51.474;7.228;2023-06-10T06:47:12;8.82;;;6.87;;
50968;SDS011;36982;51.474;7.228;2023-06-10T06:49:38;6.95;;;5.45;;
50968;SDS011;36982;51.474;7.228;2023-06-10T06:52:03;7.50;;;5.05;;
50968;SDS011;36982;51.474;7.228;2023-06-10T06:54:29;5.35;;;4.82;;
50968;SDS011;36982;51.474;7.228;2023-06-10T06:56:55;7.10;;;5.00;;
50968;SDS011;36982;51.474;7.228;2023-06-10T06:59:21;5.93;;;5.32;;
50968;SDS011;36982;51.474;7.228;2023-06-10T07:01:47;7.37;;;4.97;;
50968;SDS011;36982;51.474;7.228;2023-06-10T07:04:14;5.57;;;4.97;;
50968;SDS011;36982;51.474;7.228;2023-06-10T07:06:40;6.60;;;5.25;;
50968;SDS011;36982;51.474;7.228;2023-06-10T07:09:07;7.37;;;5.40;;
50968;SDS011;36982;51.474;7.228;2023-06-10T07:11:34;7.22;;;4.95;;
50968;SDS011;36982;51.474;7.228;2023-06-10T07:13:59;6.53;;;5.20;;
50968;SDS011;36982;51.474;7.228;2023-06-10T07:16:25;6.55;;;5.12;;
50968;SDS011;36982;51.474;7.228;2023-06-10T07:18:52;8.95;;;5.87;;
50968;SDS011;36982;51.474;7.228;2023-06-10T07:21:18;9.60;;;5.40;;
50968;SDS011;36982;51.474;7.228;2023-06-10T07:23:43;6.32;;;5.50;;
50968;SDS011;36982;51.474;7.228;2023-06-10T07:26:09;7.45;;;5.62;;
50968;SDS011;36982;51.474;7.228;2023-06-10T07:28:39;5.72;;;5.20;;
50968;SDS011;36982;51.474;7.228;2023-06-10T07:31:07;8.48;;;5.20;;
50968;SDS011;36982;51.474;7.228;2023-06-10T07:33:33;6.22;;;5.07;;
50968;SDS011;36982;51.474;7.228;2023-06-10T07:35:58;7.03;;;4.95;;
50968;SDS011;36982;51.474;7.228;2023-06-10T07:38:25;7.12;;;4.93;;
50968;SDS011;36982;51.474;7.228;2023-06-10T07:40:51;6.30;;;5.10;;
50968;SDS011;36982;51.474;7.228;2023-06-10T07:43:17;8.48;;;5.70;;
50968;SDS011;36982;51.474;7.228;2023-06-10T07:45:42;8.05;;;5.07;;
50968;SDS011;36982;51.474;7.228;2023-06-10T07:48:08;6.28;;;5.00;;
50968;SDS011;36982;51.474;7.228;2023-06-10T07:50:34;9.85;;;4.93;;
50968;SDS011;36982;51.474;7.228;2023-06-10T07:53:00;10.30;;;4.80;;
50968;SDS011;36982;51.474;7.228;2023-06-10T07:55:26;7.75;;;5.05;;
50968;SDS011;36982;51.474;7.228;2023-06-10T07:57:52;8.63;;;4.80;;
50968;SDS011;36982;51.474;7.228;2023-06-10T08:00:18;6.68;;;5.07;;
50968;SDS011;36982;51.474;7.228;2023-06-10T08:02:44;8.95;;;5.03;;
50968;SDS011;36982;51.474;7.228;2023-06-10T08:05:10;7.87;;;4.75;;
50968;SDS011;36982;51.474;7.228;2023-06-10T08:07:36;6.32;;;4.53;;
50968;SDS011;36982;51.474;7.228;2023-06-10T08:10:02;6.57;;;5.07;;
50968;SDS011;36982;51.474;7.228;2023-06-10T08:12:29;6.93;;;4.57;;
50968;SDS011;36982;51.474;7.228;2023-06-10T08:14:54;9.15;;;4.45;;
50968;SDS011;36982;51.474;7.228;2023-06-10T08:17:20;6.70;;;4.50;;
50968;SDS011;36982;51.474;7.228;2023-06-10T08:19:46;5.87;;;4.93;;
50968;SDS011;36982;51.474;7.228;2023-06-10T08:22:11;5.22;;;3.97;;
50968;SDS011;36982;51.474;7.228;2023-06-10T08:24:37;7.65;;;4.75;;
50968;SDS011;36982;51.474;7.228;2023-06-10T08:27:03;6.80;;;4.28;;
50968;SDS011;36982;51.474;7.228;2023-06-10T08:29:29;6.45;;;4.43;;
50968;SDS011;36982;51.474;7.228;2023-06-10T08:31:56;7.25;;;4.47;;
50968;SDS011;36982;51.474;7.228;2023-06-10T08:34:22;6.68;;;4.57;;
50968;SDS011;36982;51.474;7.228;2023-06-10T08:36:47;5.87;;;4.40;;
50968;SDS011;36982;51.474;7.228;2023-06-10T08:39:18;5.60;;;4.40;;
50968;SDS011;36982;51.474;7.228;2023-06-10T08:41:46;5.75;;;4.10;;
50968;SDS011;36982;51.474;7.228;2023-06-10T08:44:22;6.37;;;4.65;;
50968;SDS011;36982;51.474;7.228;2023-06-10T08:46:53;6.10;;;4.12;;
50968;SDS011;36982;51.474;7.228;2023-06-10T08:49:23;4.68;;;4.18;;
50968;SDS011;36982;51.474;7.228;2023-06-10T08:51:51;4.57;;;4.18;;
50968;SDS011;36982;51.474;7.228;2023-06-10T08:54:24;5.25;;;3.78;;
50968;SDS011;36982;51.474;7.228;2023-06-10T08:56:51;5.28;;;4.22;;
50968;SDS011;36982;51.474;7.228;2023-06-10T08:59:20;7.07;;;4.28;;
50968;SDS011;36982;51.474;7.228;2023-06-10T09:01:46;5.28;;;3.95;;
50968;SDS011;36982;51.474;7.228;2023-06-10T09:04:12;7.57;;;4.07;;
50968;SDS011;36982;51.474;7.228;2023-06-10T09:06:38;4.70;;;3.72;;
50968;SDS011;36982;51.474;7.228;2023-06-10T09:09:06;5.68;;;4.57;;
50968;SDS011;36982;51.474;7.228;2023-06-10T09:11:32;6.10;;;4.00;;
50968;SDS011;36982;51.474;7.228;2023-06-10T09:13:58;5.82;;;4.28;;
50968;SDS011;36982;51.474;7.228;2023-06-10T09:16:27;5.68;;;3.85;;
50968;SDS011;36982;51.474;7.228;2023-06-10T09:18:53;5.82;;;4.40;;
50968;SDS011;36982;51.474;7.228;2023-06-10T09:21:23;4.82;;;3.95;;
50968;SDS011;36982;51.474;7.228;2023-06-10T09:23:50;7.43;;;4.15;;
50968;SDS011;36982;51.474;7.228;2023-06-10T09:26:16;6.37;;;4.78;;
50968;SDS011;36982;51.474;7.228;2023-06-10T09:28:47;6.87;;;4.12;;
50968;SDS011;36982;51.474;7.228;2023-06-10T09:31:14;5.18;;;4.18;;
50968;SDS011;36982;51.474;7.228;2023-06-10T09:33:43;6.20;;;3.87;;
50968;SDS011;36982;51.474;7.228;2023-06-10T09:36:09;7.00;;;4.07;;
50968;SDS011;36982;51.474;7.228;2023-06-10T09:38:35;6.25;;;4.20;;
50968;SDS011;36982;51.474;7.228;2023-06-10T09:41:02;4.45;;;4.00;;
50968;SDS011;36982;51.474;7.228;2023-06-10T09:43:38;6.35;;;4.40;;
50968;SDS011;36982;51.474;7.228;2023-06-10T09:46:05;6.22;;;4.20;;
50968;SDS011;36982;51.474;7.228;2023-06-10T09:48:34;4.78;;;4.00;;
50968;SDS011;36982;51.474;7.228;2023-06-10T09:51:01;5.72;;;4.22;;
50968;SDS011;36982;51.474;7.228;2023-06-10T09:53:26;6.55;;;4.12;;
50968;SDS011;36982;51.474;7.228;2023-06-10T09:55:52;7.40;;;4.18;;
50968;SDS011;36982;51.474;7.228;2023-06-10T09:58:18;5.97;;;4.53;;
50968;SDS011;36982;51.474;7.228;2023-06-10T10:01:09;4.90;;;4.20;;
50968;SDS011;36982;51.474;7.228;2023-06-10T10:03:49;5.75;;;4.57;;
50968;SDS011;36982;51.474;7.228;2023-06-10T10:06:16;7.03;;;4.40;;
50968;SDS011;36982;51.474;7.228;2023-06-10T10:08:43;7.60;;;4.62;;
50968;SDS011;36982;51.474;7.228;2023-06-10T10:11:10;4.60;;;3.97;;
50968;SDS011;36982;51.474;7.228;2023-06-10T10:13:36;6.85;;;4.35;;
50968;SDS011;36982;51.474;7.228;2023-06-10T10:16:05;6.93;;;4.18;;
50968;SDS011;36982;51.474;7.228;2023-06-10T10:18:38;5.57;;;4.95;;
50968;SDS011;36982;51.474;7.228;2023-06-10T10:21:13;6.35;;;4.60;;
50968;SDS011;36982;51.474;7.228;2023-06-10T10:26:18;7.47;;;4.60;;
50968;SDS011;36982;51.474;7.228;2023-06-10T10:28:58;7.28;;;4.80;;
50968;SDS011;36982;51.474;7.228;2023-06-10T10:31:34;5.65;;;4.43;;
50968;SDS011;36982;51.474;7.228;2023-06-10T10:34:02;5.45;;;4.95;;
50968;SDS011;36982;51.474;7.228;2023-06-10T10:36:31;6.97;;;5.05;;
50968;SDS011;36982;51.474;7.228;2023-06-10T10:38:57;7.25;;;4.78;;
50968;SDS011;36982;51.474;7.228;2023-06-10T10:41:26;5.25;;;4.75;;
50968;SDS011;36982;51.474;7.228;2023-06-10T10:43:53;6.68;;;5.20;;
50968;SDS011;36982;51.474;7.228;2023-06-10T10:46:19;6.62;;;4.93;;
50968;SDS011;36982;51.474;7.228;2023-06-10T10:52:00;6.28;;;5.12;;
50968;SDS011;36982;51.474;7.228;2023-06-10T10:54:30;5.30;;;4.80;;
50968;SDS011;36982;51.474;7.228;2023-06-10T10:59:58;5.93;;;4.57;;
50968;SDS011;36982;51.474;7.228;2023-06-10T11:02:44;5.45;;;4.95;;
50968;SDS011;36982;51.474;7.228;2023-06-10T11:05:13;5.90;;;4.90;;
50968;SDS011;36982;51.474;7.228;2023-06-10T11:07:40;5.22;;;4.72;;
50968;SDS011;36982;51.474;7.228;2023-06-10T11:10:09;7.22;;;4.68;;
50968;SDS011;36982;51.474;7.228;2023-06-10T11:15:22;5.90;;;4.80;;
50968;SDS011;36982;51.474;7.228;2023-06-10T11:21:06;5.25;;;4.75;;
50968;SDS011;36982;51.474;7.228;2023-06-10T11:28:39;6.68;;;5.05;;
50968;SDS011;36982;51.474;7.228;2023-06-10T11:31:06;7.25;;;5.20;;
50968;SDS011;36982;51.474;7.228;2023-06-10T11:33:32;6.10;;;5.50;;
50968;SDS011;36982;51.474;7.228;2023-06-10T11:35:58;5.40;;;4.85;;
50968;SDS011;36982;51.474;7.228;2023-06-10T11:38:24;6.10;;;4.70;;
50968;SDS011;36982;51.474;7.228;2023-06-10T11:40:51;5.10;;;4.55;;
50968;SDS011;36982;51.474;7.228;2023-06-10T11:43:17;5.95;;;4.82;;
50968;SDS011;36982;51.474;7.228;2023-06-10T11:45:43;7.55;;;5.72;;
50968;SDS011;36982;51.474;7.228;2023-06-10T11:48:10;6.47;;;4.97;;
50968;SDS011;36982;51.474;7.228;2023-06-10T11:53:37;7.05;;;5.18;;
50968;SDS011;36982;51.474;7.228;2023-06-10T11:56:02;5.45;;;4.95;;
50968;SDS011;36982;51.474;7.228;2023-06-10T11:58:28;5.95;;;5.12;;
50968;SDS011;36982;51.474;7.228;2023-06-10T12:00:54;5.12;;;4.55;;
50968;SDS011;36982;51.474;7.228;2023-06-10T12:03:26;7.95;;;5.25;;
50968;SDS011;36982;51.474;7.228;2023-06-10T12:05:58;6.10;;;4.70;;
50968;SDS011;36982;51.474;7.228;2023-06-10T12:08:25;6.32;;;5.53;;
50968;SDS011;36982;51.474;7.228;2023-06-10T12:10:52;6.95;;;4.85;;
50968;SDS011;36982;51.474;7.228;2023-06-10T12:13:18;6.78;;;4.93;;
50968;SDS011;36982;51.474;7.228;2023-06-10T12:15:44;5.93;;;4.80;;
50968;SDS011;36982;51.474;7.228;2023-06-10T12:18:22;6.37;;;4.85;;
50968;SDS011;36982;51.474;7.228;2023-06-10T12:20:49;6.47;;;5.15;;
50968;SDS011;36982;51.474;7.228;2023-06-10T12:23:16;5.95;;;4.85;;
50968;SDS011;36982;51.474;7.228;2023-06-10T12:25:50;6.07;;;5.10;;
50968;SDS011;36982;51.474;7.228;2023-06-10T12:28:20;5.43;;;4.80;;
50968;SDS011;36982;51.474;7.228;2023-06-10T12:30:49;5.53;;;4.72;;
50968;SDS011;36982;51.474;7.228;2023-06-10T12:33:19;5.00;;;4.50;;
50968;SDS011;36982;51.474;7.228;2023-06-10T12:35:49;5.30;;;4.90;;
50968;SDS011;36982;51.474;7.228;2023-06-10T12:38:26;13.05;;;5.18;;
50968;SDS011;36982;51.474;7.228;2023-06-10T12:41:01;5.35;;;4.75;;
50968;SDS011;36982;51.474;7.228;2023-06-10T12:43:31;7.05;;;4.95;;
50968;SDS011;36982;51.474;7.228;2023-06-10T12:46:07;7.25;;;5.47;;
50968;SDS011;36982;51.474;7.228;2023-06-10T12:48:34;6.10;;;4.80;;
50968;SDS011;36982;51.474;7.228;2023-06-10T12:50:59;6.00;;;4.60;;
50968;SDS011;36982;51.474;7.228;2023-06-10T12:53:26;8.00;;;5.10;;
50968;SDS011;36982;51.474;7.228;2023-06-10T12:55:52;5.85;;;5.20;;
50968;SDS011;36982;51.474;7.228;2023-06-10T12:58:22;5.50;;;4.82;;
50968;SDS011;36982;51.474;7.228;2023-06-10T13:00:48;6.12;;;4.85;;
50968;SDS011;36982;51.474;7.228;2023-06-10T13:03:14;6.70;;;5.35;;
50968;SDS011;36982;51.474;7.228;2023-06-10T13:05:40;7.00;;;5.45;;
50968;SDS011;36982;51.474;7.228;2023-06-10T13:08:06;5.85;;;5.25;;
50968;SDS011;36982;51.474;7.228;2023-06-10T13:10:32;6.62;;;5.20;;
50968;SDS011;36982;51.474;7.228;2023-06-10T13:13:05;6.07;;;4.97;;
50968;SDS011;36982;51.474;7.228;2023-06-10T13:15:33;6.97;;;4.95;;
50968;SDS011;36982;51.474;7.228;2023-06-10T13:18:02;7.55;;;5.00;;
50968;SDS011;36982;51.474;7.228;2023-06-10T13:20:28;6.30;;;4.93;;
50968;SDS011;36982;51.474;7.228;2023-06-10T13:22:54;7.35;;;5.25;;
50968;SDS011;36982;51.474;7.228;2023-06-10T13:25:20;6.47;;;5.22;;
50968;SDS011;36982;51.474;7.228;2023-06-10T13:27:46;6.72;;;5.43;;
50968;SDS011;36982;51.474;7.228;2023-06-10T13:30:11;6.05;;;5.22;;
50968;SDS011;36982;51.474;7.228;2023-06-10T13:32:37;6.55;;;5.20;;
50968;SDS011;36982;51.474;7.228;2023-06-10T13:35:03;6.20;;;5.60;;
50968;SDS011;36982;51.474;7.228;2023-06-10T13:37:29;6.40;;;5.10;;
50968;SDS011;36982;51.474;7.228;2023-06-10T13:39:55;6.30;;;5.18;;
50968;SDS011;36982;51.474;7.228;2023-06-10T13:42:21;9.00;;;5.03;;
50968;SDS011;36982;51.474;7.228;2023-06-10T13:44:46;5.25;;;4.75;;
50968;SDS011;36982;51.474;7.228;2023-06-10T13:47:13;5.93;;;5.10;;
50968;SDS011;36982;51.474;7.228;2023-06-10T13:49:39;6.60;;;5.03;;
50968;SDS011;36982;51.474;7.228;2023-06-10T13:52:05;5.30;;;4.80;;
50968;SDS011;36982;51.474;7.228;2023-06-10T13:54:31;6.50;;;4.82;;
50968;SDS011;36982;51.474;7.228;2023-06-10T13:56:57;6.12;;;4.78;;
50968;SDS011;36982;51.474;7.228;2023-06-10T13:59:23;6.57;;;5.37;;
50968;SDS011;36982;51.474;7.228;2023-06-10T14:01:48;5.95;;;5.03;;
50968;SDS011;36982;51.474;7.228;2023-06-10T14:04:14;6.47;;;4.82;;
50968;SDS011;36982;51.474;7.228;2023-06-10T14:06:39;5.87;;;4.65;;
50968;SDS011;36982;51.474;7.228;2023-06-10T14:09:05;5.47;;;4.97;;
50968;SDS011;36982;51.474;7.228;2023-06-10T14:11:31;6.68;;;5.12;;
50968;SDS011;36982;51.474;7.228;2023-06-10T14:13:56;6.07;;;4.90;;
50968;SDS011;36982;51.474;7.228;2023-06-10T14:16:26;5.80;;;4.78;;
50968;SDS011;36982;51.474;7.228;2023-06-10T14:18:53;5.93;;;5.03;;
50968;SDS011;36982;51.474;7.228;2023-06-10T14:21:18;5.87;;;5.20;;
50968;SDS011;36982;51.474;7.228;2023-06-10T14:23:44;5.30;;;4.80;;
50968;SDS011;36982;51.474;7.228;2023-06-10T14:26:10;7.18;;;5.12;;
50968;SDS011;36982;51.474;7.228;2023-06-10T14:28:37;5.72;;;4.75;;
50968;SDS011;36982;51.474;7.228;2023-06-10T14:31:02;5.50;;;4.93;;
50968;SDS011;36982;51.474;7.228;2023-06-10T14:33:28;6.45;;;4.75;;
50968;SDS011;36982;51.474;7.228;2023-06-10T14:35:56;5.93;;;4.50;;
50968;SDS011;36982;51.474;7.228;2023-06-10T14:38:21;6.68;;;4.90;;
50968;SDS011;36982;51.474;7.228;2023-06-10T14:40:47;7.37;;;4.72;;
50968;SDS011;36982;51.474;7.228;2023-06-10T14:43:12;5.70;;;5.10;;
50968;SDS011;36982;51.474;7.228;2023-06-10T14:45:38;5.35;;;4.85;;
50968;SDS011;36982;51.474;7.228;2023-06-10T14:48:05;6.20;;;5.28;;
50968;SDS011;36982;51.474;7.228;2023-06-10T14:50:31;5.93;;;5.30;;
50968;SDS011;36982;51.474;7.228;2023-06-10T14:52:57;5.30;;;4.80;;
50968;SDS011;36982;51.474;7.228;2023-06-10T14:55:23;5.97;;;4.40;;
50968;SDS011;36982;51.474;7.228;2023-06-10T14:57:49;7.50;;;4.93;;
50968;SDS011;36982;51.474;7.228;2023-06-10T15:00:15;6.00;;;4.80;;
50968;SDS011;36982;51.474;7.228;2023-06-10T15:02:44;5.87;;;5.22;;
50968;SDS011;36982;51.474;7.228;2023-06-10T15:05:12;7.40;;;5.55;;
50968;SDS011;36982;51.474;7.228;2023-06-10T15:07:39;5.57;;;5.07;;
50968;SDS011;36982;51.474;7.228;2023-06-10T15:10:05;6.40;;;4.85;;